sensor_id;sensor_type;location;lat;lon;timestamp;pressure;altitude;pressure_sealevel;temperature;humidity
42169;BME280;27838;43.858;25.974;2023-08-06T00:01:30;99681.59;;;28.70;51.89
42169;BME280;27838;43.858;25.974;2023-08-06T00:03:56;99666.78;;;28.66;51.79
42169;BME280;27838;43.858;25.974;2023-08-06T00:06:25;99659.44;;;28.58;52.14
42169;BME280;27838;43.858;25.974;2023-08-06T00:08:51;99660.84;;;28.53;52.46
42169;BME280;27838;43.858;25.974;2023-08-06T00:11:18;99658.44;;;28.50;52.89
42169;BME280;27838;43.858;25.974;2023-08-06T00:13:44;99657.16;;;28.44;52.71
42169;BME280;27838;43.858;25.974;2023-08-06T00:16:12;99648.13;;;28.35;53.62
42169;BME280;27838;43.858;25.974;2023-08-06T00:18:39;99642.09;;;28.33;53.56
42169;BME280;27838;43.858;25.974;2023-08-06T00:21:06;99631.63;;;28.30;54.04
42169;BME280;27838;43.858;25.974;2023-08-06T00:23:32;99627.84;;;28.23;54.10
42169;BME280;27838;43.858;25.974;2023-08-06T00:25:59;99618.41;;;28.19;54.51
42169;BME280;27838;43.858;25.974;2023-08-06T00:28:25;99624.28;;;28.13;54.67
42169;BME280;27838;43.858;25.974;2023-08-06T00:30:53;99621.47;;;28.04;55.16
42169;BME280;27838;43.858;25.974;2023-08-06T00:33:21;99627.13;;;28.01;55.30
42169;BME280;27838;43.858;25.974;2023-08-06T00:35:47;99612.00;;;27.91;55.77
42169;BME280;27838;43.858;25.974;2023-08-06T00:38:14;99636.25;;;27.99;55.37
42169;BME280;27838;43.858;25.974;2023-08-06T00:40:40;99637.13;;;27.99;55.73
42169;BME280;27838;43.858;25.974;2023-08-06T00:43:07;99634.03;;;27.94;55.66
42169;BME280;27838;43.858;25.974;2023-08-06T00:45:35;99622.84;;;27.89;55.97
42169;BME280;27838;43.858;25.974;2023-08-06T00:48:04;99610.25;;;27.80;56.80
42169;BME280;27838;43.858;25.974;2023-08-06T00:50:31;99615.78;;;27.88;56.47
42169;BME280;27838;43.858;25.974;2023-08-06T00:52:58;99618.78;;;27.95;55.99
42169;BME280;27838;43.858;25.974;2023-08-06T00:55:25;99627.78;;;27.94;56.24
42169;BME280;27838;43.858;25.974;2023-08-06T00:57:52;99647.25;;;27.96;56.40
42169;BME280;27838;43.858;25.974;2023-08-06T01:00:22;99649.22;;;27.94;56.10
42169;BME280;27838;43.858;25.974;2023-08-06T01:02:48;99650.53;;;28.09;56.11
42169;BME280;27838;43.858;25.974;2023-08-06T01:05:15;99640.38;;;28.13;55.97
42169;BME280;27838;43.858;25.974;2023-08-06T01:07:56;99644.47;;;28.07;56.02
42169;BME280;27838;43.858;25.974;2023-08-06T01:10:55;99650.66;;;28.08;56.14
42169;BME280;27838;43.858;25.974;2023-08-06T01:16:17;99636.41;;;27.97;56.79
42169;BME280;27838;43.858;25.974;2023-08-06T01:18:44;99651.06;;;27.93;57.20
42169;BME280;27838;43.858;25.974;2023-08-06T01:21:14;99660.06;;;27.92;57.06
42169;BME280;27838;43.858;25.974;2023-08-06T01:23:44;99656.56;;;28.01;56.58
42169;BME280;27838;43.858;25.974;2023-08-06T01:26:28;99632.56;;;27.90;57.19
42169;BME280;27838;43.858;25.974;2023-08-06T01:29:07;99625.53;;;27.89;57.53
42169;BME280;27838;43.858;25.974;2023-08-06T01:31:37;99635.34;;;27.79;57.42
42169;BME280;27838;43.858;25.974;2023-08-06T01:34:08;99631.41;;;27.83;57.32
42169;BME280;27838;43.858;25.974;2023-08-06T01:36:36;99634.53;;;27.88;57.42
42169;BME280;27838;43.858;25.974;2023-08-06T01:39:04;99626.25;;;27.91;56.93
42169;BME280;27838;43.858;25.974;2023-08-06T01:41:31;99640.34;;;27.93;57.25
42169;BME280;27838;43.858;25.974;2023-08-06T01:43:57;99640.50;;;28.01;56.82
42169;BME280;27838;43.858;25.974;2023-08-06T01:46:24;99632.63;;;28.00;56.58
42169;BME280;27838;43.858;25.974;2023-08-06T01:48:50;99637.84;;;28.01;56.48
42169;BME280;27838;43.858;25.974;2023-08-06T01:51:17;99649.81;;;28.07;56.40
42169;BME280;27838;43.858;25.974;2023-08-06T01:53:43;99662.38;;;28.06;56.66
42169;BME280;27838;43.858;25.974;2023-08-06T01:56:10;99664.31;;;28.04;56.41
42169;BME280;27838;43.858;25.974;2023-08-06T01:58:36;99650.66;;;28.08;56.18
42169;BME280;27838;43.858;25.974;2023-08-06T02:01:03;99658.28;;;28.12;56.00
42169;BME280;27838;43.858;25.974;2023-08-06T02:03:29;99657.16;;;28.15;56.20
42169;BME280;27838;43.858;25.974;2023-08-06T02:05:56;99645.88;;;28.11;55.85
42169;BME280;27838;43.858;25.974;2023-08-06T02:08:23;99654.19;;;28.18;55.84
42169;BME280;27838;43.858;25.974;2023-08-06T02:10:49;99642.19;;;28.22;55.89
42169;BME280;27838;43.858;25.974;2023-08-06T02:13:16;99646.88;;;28.30;55.54
42169;BME280;27838;43.858;25.974;2023-08-06T02:15:46;99639.69;;;28.30;55.41
42169;BME280;27838;43.858;25.974;2023-08-06T02:18:14;99655.06;;;28.38;55.40
42169;BME280;27838;43.858;25.974;2023-08-06T02:20:41;99657.75;;;28.38;54.14
42169;BME280;27838;43.858;25.974;2023-08-06T02:23:08;99660.44;;;28.38;52.89
42169;BME280;27838;43.858;25.974;2023-08-06T02:25:35;99656.91;;;28.28;51.31
42169;BME280;27838;43.858;25.974;2023-08-06T02:28:02;99658.13;;;28.23;51.02
42169;BME280;27838;43.858;25.974;2023-08-06T02:30:28;99658.84;;;28.25;50.76
42169;BME280;27838;43.858;25.974;2023-08-06T02:32:55;99657.44;;;28.21;50.03
42169;BME280;27838;43.858;25.974;2023-08-06T02:35:22;99665.03;;;28.16;49.73
42169;BME280;27838;43.858;25.974;2023-08-06T02:37:48;99666.44;;;28.11;49.82
42169;BME280;27838;43.858;25.974;2023-08-06T02:40:15;99669.97;;;28.11;49.79
42169;BME280;27838;43.858;25.974;2023-08-06T02:42:42;99664.19;;;27.96;48.63
42169;BME280;27838;43.858;25.974;2023-08-06T02:45:08;99676.25;;;27.91;49.00
42169;BME280;27838;43.858;25.974;2023-08-06T02:47:35;99672.94;;;27.67;48.96
42169;BME280;27838;43.858;25.974;2023-08-06T02:50:01;99669.03;;;27.41;49.46
42169;BME280;27838;43.858;25.974;2023-08-06T02:52:28;99661.59;;;27.23;49.87
42169;BME280;27838;43.858;25.974;2023-08-06T02:54:54;99682.34;;;27.10;50.29
42169;BME280;27838;43.858;25.974;2023-08-06T02:57:21;99691.16;;;27.01;50.23
42169;BME280;27838;43.858;25.974;2023-08-06T02:59:47;99690.31;;;26.79;50.78
42169;BME280;27838;43.858;25.974;2023-08-06T03:02:14;99679.81;;;26.87;50.59
42169;BME280;27838;43.858;25.974;2023-08-06T03:04:40;99683.22;;;26.89;50.34
42169;BME280;27838;43.858;25.974;2023-08-06T03:07:07;99677.53;;;26.83;50.76
42169;BME280;27838;43.858;25.974;2023-08-06T03:09:33;99681.19;;;26.82;50.58
42169;BME280;27838;43.858;25.974;2023-08-06T03:12:00;99678.63;;;26.80;50.80
42169;BME280;27838;43.858;25.974;2023-08-06T03:14:27;99673.03;;;26.83;50.19
42169;BME280;27838;43.858;25.974;2023-08-06T03:16:53;99664.06;;;26.84;50.48
42169;BME280;27838;43.858;25.974;2023-08-06T03:19:20;99668.03;;;26.90;50.10
42169;BME280;27838;43.858;25.974;2023-08-06T03:21:46;99678.34;;;26.94;50.46
42169;BME280;27838;43.858;25.974;2023-08-06T03:24:13;99664.16;;;27.04;49.87
42169;BME280;27838;43.858;25.974;2023-08-06T03:26:40;99669.97;;;27.09;49.66
42169;BME280;27838;43.858;25.974;2023-08-06T03:29:06;99667.94;;;27.01;49.52
42169;BME280;27838;43.858;25.974;2023-08-06T03:31:33;99666.91;;;26.92;49.78
42169;BME280;27838;43.858;25.974;2023-08-06T03:33:59;99663.25;;;26.72;50.41
42169;BME280;27838;43.858;25.974;2023-08-06T03:36:26;99671.91;;;26.65;50.54
42169;BME280;27838;43.858;25.974;2023-08-06T03:38:52;99671.28;;;26.61;50.72
42169;BME280;27838;43.858;25.974;2023-08-06T03:41:19;99673.88;;;26.63;50.88
42169;BME280;27838;43.858;25.974;2023-08-06T03:43:45;99670.50;;;26.49;51.18
42169;BME280;27838;43.858;25.974;2023-08-06T03:46:12;99662.78;;;26.35;51.70
42169;BME280;27838;43.858;25.974;2023-08-06T03:48:38;99652.72;;;26.27;51.89
42169;BME280;27838;43.858;25.974;2023-08-06T03:51:05;99655.66;;;26.24;52.30
42169;BME280;27838;43.858;25.974;2023-08-06T03:53:31;99661.97;;;26.23;52.61
42169;BME280;27838;43.858;25.974;2023-08-06T03:55:58;99661.72;;;26.26;52.04
42169;BME280;27838;43.858;25.974;2023-08-06T03:58:25;99652.84;;;26.26;52.50
42169;BME280;27838;43.858;25.974;2023-08-06T04:01:02;99637.31;;;26.31;52.15
42169;BME280;27838;43.858;25.974;2023-08-06T04:03:29;99653.66;;;26.37;52.05
42169;BME280;27838;43.858;25.974;2023-08-06T04:05:55;99647.31;;;26.50;51.91
42169;BME280;27838;43.858;25.974;2023-08-06T04:08:22;99640.22;;;26.60;51.85
42169;BME280;27838;43.858;25.974;2023-08-06T04:10:52;99643.72;;;26.61;51.40
42169;BME280;27838;43.858;25.974;2023-08-06T04:13:19;99637.53;;;26.60;51.46
42169;BME280;27838;43.858;25.974;2023-08-06T04:15:46;99635.59;;;26.62;51.60
42169;BME280;27838;43.858;25.974;2023-08-06T04:18:12;99637.91;;;26.67;51.63
42169;BME280;27838;43.858;25.974;2023-08-06T04:20:43;99635.47;;;26.64;51.40
42169;BME280;27838;43.858;25.974;2023-08-06T04:23:10;99639.38;;;26.60;51.71
42169;BME280;27838;43.858;25.974;2023-08-06T04:25:37;99644.34;;;26.64;51.59
42169;BME280;27838;43.858;25.974;2023-08-06T04:28:04;99635.84;;;26.59;51.67
42169;BME280;27838;43.858;25.974;2023-08-06T04:30:30;99643.50;;;26.64;52.16
42169;BME280;27838;43.858;25.974;2023-08-06T04:32:57;99635.69;;;26.72;51.84
42169;BME280;27838;43.858;25.974;2023-08-06T04:35:25;99636.84;;;26.79;51.60
42169;BME280;27838;43.858;25.974;2023-08-06T04:37:51;99645.06;;;26.87;51.54
42169;BME280;27838;43.858;25.974;2023-08-06T04:40:18;99652.56;;;26.93;51.76
42169;BME280;27838;43.858;25.974;2023-08-06T04:42:44;99646.66;;;27.00;51.77
42169;BME280;27838;43.858;25.974;2023-08-06T04:45:11;99651.50;;;27.06;51.69
42169;BME280;27838;43.858;25.974;2023-08-06T04:47:37;99648.00;;;27.05;51.85
42169;BME280;27838;43.858;25.974;2023-08-06T04:50:04;99652.22;;;27.08;51.70
42169;BME280;27838;43.858;25.974;2023-08-06T04:52:31;99649.16;;;27.12;51.58
42169;BME280;27838;43.858;25.974;2023-08-06T04:54:57;99649.03;;;27.14;51.39
42169;BME280;27838;43.858;25.974;2023-08-06T04:57:24;99638.78;;;27.19;50.96
42169;BME280;27838;43.858;25.974;2023-08-06T04:59:50;99620.84;;;27.10;50.94
42169;BME280;27838;43.858;25.974;2023-08-06T05:02:17;99630.31;;;27.14;51.15
42169;BME280;27838;43.858;25.974;2023-08-06T05:04:44;99627.69;;;27.03;51.51
42169;BME280;27838;43.858;25.974;2023-08-06T05:07:10;99630.22;;;26.94;52.01
42169;BME280;27838;43.858;25.974;2023-08-06T05:09:37;99622.69;;;26.88;51.97
42169;BME280;27838;43.858;25.974;2023-08-06T05:12:04;99618.06;;;26.90;52.21
42169;BME280;27838;43.858;25.974;2023-08-06T05:14:31;99621.06;;;26.97;52.05
42169;BME280;27838;43.858;25.974;2023-08-06T05:16:57;99624.09;;;27.13;51.77
42169;BME280;27838;43.858;25.974;2023-08-06T05:19:24;99624.97;;;27.24;51.53
42169;BME280;27838;43.858;25.974;2023-08-06T05:21:50;99628.44;;;27.36;51.37
42169;BME280;27838;43.858;25.974;2023-08-06T05:24:17;99634.34;;;27.29;51.36
42169;BME280;27838;43.858;25.974;2023-08-06T05:26:43;99637.41;;;27.25;51.63
42169;BME280;27838;43.858;25.974;2023-08-06T05:29:12;99631.25;;;27.34;51.71
42169;BME280;27838;43.858;25.974;2023-08-06T05:31:38;99630.41;;;27.34;51.52
42169;BME280;27838;43.858;25.974;2023-08-06T05:34:05;99622.13;;;27.37;51.17
42169;BME280;27838;43.858;25.974;2023-08-06T05:36:31;99619.72;;;27.34;50.97
42169;BME280;27838;43.858;25.974;2023-08-06T05:38:58;99628.19;;;27.39;51.02
42169;BME280;27838;43.858;25.974;2023-08-06T05:41:24;99625.25;;;27.42;50.72
42169;BME280;27838;43.858;25.974;2023-08-06T05:43:51;99624.69;;;27.48;50.04
42169;BME280;27838;43.858;25.974;2023-08-06T05:46:17;99609.59;;;27.37;50.20
42169;BME280;27838;43.858;25.974;2023-08-06T05:48:44;99622.03;;;27.48;50.72
42169;BME280;27838;43.858;25.974;2023-08-06T05:51:10;99620.34;;;27.57;50.30
42169;BME280;27838;43.858;25.974;2023-08-06T05:53:38;99616.13;;;27.54;49.83
42169;BME280;27838;43.858;25.974;2023-08-06T05:56:04;99618.38;;;27.59;50.05
42169;BME280;27838;43.858;25.974;2023-08-06T05:58:31;99612.50;;;27.65;49.73
42169;BME280;27838;43.858;25.974;2023-08-06T06:00:57;99614.75;;;27.69;49.74
42169;BME280;27838;43.858;25.974;2023-08-06T06:03:24;99595.31;;;27.67;49.12
42169;BME280;27838;43.858;25.974;2023-08-06T06:05:50;99616.31;;;27.72;49.34
42169;BME280;27838;43.858;25.974;2023-08-06T06:08:17;99612.06;;;27.69;49.38
42169;BME280;27838;43.858;25.974;2023-08-06T06:10:43;99616.72;;;27.67;49.42
42169;BME280;27838;43.858;25.974;2023-08-06T06:13:10;99614.63;;;27.71;48.82
42169;BME280;27838;43.858;25.974;2023-08-06T06:15:36;99610.84;;;27.74;48.87
42169;BME280;27838;43.858;25.974;2023-08-06T06:18:03;99617.84;;;27.75;48.86
42169;BME280;27838;43.858;25.974;2023-08-06T06:20:32;99609.00;;;27.74;48.72
42169;BME280;27838;43.858;25.974;2023-08-06T06:22:59;99618.72;;;27.85;48.77
42169;BME280;27838;43.858;25.974;2023-08-06T06:25:25;99611.13;;;27.90;48.12
42169;BME280;27838;43.858;25.974;2023-08-06T06:27:52;99622.72;;;27.91;47.90
42169;BME280;27838;43.858;25.974;2023-08-06T06:30:18;99620.63;;;27.94;47.96
42169;BME280;27838;43.858;25.974;2023-08-06T06:32:45;99615.09;;;27.96;47.95
42169;BME280;27838;43.858;25.974;2023-08-06T06:35:12;99614.28;;;27.95;47.83
42169;BME280;27838;43.858;25.974;2023-08-06T06:37:39;99614.28;;;27.95;48.31
42169;BME280;27838;43.858;25.974;2023-08-06T06:40:05;99618.31;;;27.90;47.86
42169;BME280;27838;43.858;25.974;2023-08-06T06:42:32;99616.91;;;27.85;47.85
42169;BME280;27838;43.858;25.974;2023-08-06T06:44:59;99622.09;;;27.87;48.01
42169;BME280;27838;43.858;25.974;2023-08-06T06:47:25;99624.66;;;27.88;48.06
42169;BME280;27838;43.858;25.974;2023-08-06T06:49:52;99615.34;;;27.83;48.06
42169;BME280;27838;43.858;25.974;2023-08-06T06:52:18;99625.09;;;27.84;47.94
42169;BME280;27838;43.858;25.974;2023-08-06T06:54:45;99620.44;;;27.86;48.20
42169;BME280;27838;43.858;25.974;2023-08-06T06:57:11;99626.13;;;27.93;48.26
42169;BME280;27838;43.858;25.974;2023-08-06T06:59:38;99618.22;;;28.01;47.58
42169;BME280;27838;43.858;25.974;2023-08-06T07:02:05;99620.66;;;28.14;47.60
42169;BME280;27838;43.858;25.974;2023-08-06T07:04:32;99623.63;;;28.20;47.14
42169;BME280;27838;43.858;25.974;2023-08-06T07:06:58;99628.69;;;28.33;46.61
42169;BME280;27838;43.858;25.974;2023-08-06T07:09:24;99615.00;;;28.36;46.22
42169;BME280;27838;43.858;25.974;2023-08-06T07:11:52;99623.63;;;28.40;46.25
42169;BME280;27838;43.858;25.974;2023-08-06T07:14:18;99634.59;;;28.37;46.49
42169;BME280;27838;43.858;25.974;2023-08-06T07:16:45;99633.47;;;28.39;46.54
42169;BME280;27838;43.858;25.974;2023-08-06T07:19:11;99623.75;;;28.38;46.50
42169;BME280;27838;43.858;25.974;2023-08-06T07:21:38;99634.91;;;28.43;46.50
42169;BME280;27838;43.858;25.974;2023-08-06T07:24:04;99636.88;;;28.41;46.20
42169;BME280;27838;43.858;25.974;2023-08-06T07:26:31;99640.66;;;28.39;46.33
42169;BME280;27838;43.858;25.974;2023-08-06T07:28:58;99635.59;;;28.46;46.23
42169;BME280;27838;43.858;25.974;2023-08-06T07:31:24;99638.97;;;28.48;46.37
42169;BME280;27838;43.858;25.974;2023-08-06T07:33:51;99634.44;;;28.48;46.09
42169;BME280;27838;43.858;25.974;2023-08-06T07:36:18;99635.19;;;28.50;46.01
42169;BME280;27838;43.858;25.974;2023-08-06T07:38:44;99643.06;;;28.42;46.16
42169;BME280;27838;43.858;25.974;2023-08-06T07:41:11;99643.75;;;28.34;46.34
42169;BME280;27838;43.858;25.974;2023-08-06T07:43:38;99639.41;;;28.33;46.32
42169;BME280;27838;43.858;25.974;2023-08-06T07:46:04;99652.06;;;28.21;46.50
42169;BME280;27838;43.858;25.974;2023-08-06T07:48:31;99649.25;;;28.23;46.50
42169;BME280;27838;43.858;25.974;2023-08-06T07:50:57;99632.50;;;28.21;46.44
42169;BME280;27838;43.858;25.974;2023-08-06T07:53:25;99644.19;;;28.20;46.99
42169;BME280;27838;43.858;25.974;2023-08-06T07:55:54;99640.53;;;28.21;47.13
42169;BME280;27838;43.858;25.974;2023-08-06T07:58:21;99634.59;;;28.27;46.93
42169;BME280;27838;43.858;25.974;2023-08-06T08:00:48;99633.91;;;28.35;46.53
42169;BME280;27838;43.858;25.974;2023-08-06T08:03:15;99646.84;;;28.39;46.51
42169;BME280;27838;43.858;25.974;2023-08-06T08:05:42;99646.59;;;28.42;46.51
42169;BME280;27838;43.858;25.974;2023-08-06T08:08:09;99644.19;;;28.39;47.02
42169;BME280;27838;43.858;25.974;2023-08-06T08:10:36;99650.53;;;28.38;46.74
42169;BME280;27838;43.858;25.974;2023-08-06T08:13:04;99644.19;;;28.39;46.58
42169;BME280;27838;43.858;25.974;2023-08-06T08:15:31;99637.69;;;28.52;46.74
42169;BME280;27838;43.858;25.974;2023-08-06T08:17:58;99645.75;;;28.61;46.61
42169;BME280;27838;43.858;25.974;2023-08-06T08:20:26;99646.75;;;28.70;46.83
42169;BME280;27838;43.858;25.974;2023-08-06T08:22:56;99659.72;;;28.75;46.11
42169;BME280;27838;43.858;25.974;2023-08-06T08:25:23;99655.75;;;28.69;46.42
42169;BME280;27838;43.858;25.974;2023-08-06T08:27:49;99667.06;;;28.63;46.33
42169;BME280;27838;43.858;25.974;2023-08-06T08:30:16;99681.44;;;28.62;46.71
42169;BME280;27838;43.858;25.974;2023-08-06T08:32:42;99684.28;;;28.60;46.23
42169;BME280;27838;43.858;25.974;2023-08-06T08:35:09;99676.50;;;28.67;46.06
42169;BME280;27838;43.858;25.974;2023-08-06T08:37:37;99676.38;;;28.69;46.32
42169;BME280;27838;43.858;25.974;2023-08-06T08:40:05;99685.97;;;28.81;46.57
42169;BME280;27838;43.858;25.974;2023-08-06T08:42:32;99687.38;;;28.85;46.41
42169;BME280;27838;43.858;25.974;2023-08-06T08:44:59;99692.88;;;28.84;46.05
42169;BME280;27838;43.858;25.974;2023-08-06T08:47:26;99683.00;;;28.74;46.33
42169;BME280;27838;43.858;25.974;2023-08-06T08:49:54;99687.25;;;28.77;46.53
42169;BME280;27838;43.858;25.974;2023-08-06T08:52:21;99681.19;;;28.75;46.79
42169;BME280;27838;43.858;25.974;2023-08-06T08:54:49;99681.16;;;28.94;46.63
42169;BME280;27838;43.858;25.974;2023-08-06T08:57:18;99691.56;;;29.07;46.47
42169;BME280;27838;43.858;25.974;2023-08-06T08:59:45;99685.91;;;29.10;46.75
42169;BME280;27838;43.858;25.974;2023-08-06T09:02:13;99673.78;;;29.16;46.98
42169;BME280;27838;43.858;25.974;2023-08-06T09:04:42;99683.41;;;29.18;46.34
42169;BME280;27838;43.858;25.974;2023-08-06T09:07:13;99683.41;;;29.18;46.76
42169;BME280;27838;43.858;25.974;2023-08-06T09:09:43;99683.94;;;29.22;46.63
42169;BME280;27838;43.858;25.974;2023-08-06T09:12:15;99675.28;;;29.28;46.56
42169;BME280;27838;43.858;25.974;2023-08-06T09:14:42;99665.38;;;29.38;46.58
42169;BME280;27838;43.858;25.974;2023-08-06T09:17:09;99661.78;;;29.48;46.50
42169;BME280;27838;43.858;25.974;2023-08-06T09:19:36;99669.69;;;29.59;46.22
42169;BME280;27838;43.858;25.974;2023-08-06T09:22:03;99660.28;;;29.73;46.63
42169;BME280;27838;43.858;25.974;2023-08-06T09:24:38;99658.84;;;29.79;46.44
42169;BME280;27838;43.858;25.974;2023-08-06T09:27:14;99650.38;;;29.83;46.89
42169;BME280;27838;43.858;25.974;2023-08-06T09:29:45;99651.44;;;29.90;47.06
42169;BME280;27838;43.858;25.974;2023-08-06T09:32:12;99632.03;;;29.97;47.10
42169;BME280;27838;43.858;25.974;2023-08-06T09:34:41;99625.53;;;29.99;47.08
42169;BME280;27838;43.858;25.974;2023-08-06T09:37:10;99617.31;;;30.01;47.13
42169;BME280;27838;43.858;25.974;2023-08-06T09:39:39;99602.72;;;30.03;47.26
42169;BME280;27838;43.858;25.974;2023-08-06T09:42:06;99603.25;;;30.07;47.55
42169;BME280;27838;43.858;25.974;2023-08-06T09:44:33;99596.75;;;30.09;47.62
42169;BME280;27838;43.858;25.974;2023-08-06T09:47:02;99596.75;;;30.09;47.64
42169;BME280;27838;43.858;25.974;2023-08-06T09:49:41;99592.75;;;30.13;48.03
42169;BME280;27838;43.858;25.974;2023-08-06T09:52:11;99584.28;;;30.08;48.38
42169;BME280;27838;43.858;25.974;2023-08-06T09:54:39;99569.16;;;29.89;48.08
42169;BME280;27838;43.858;25.974;2023-08-06T09:57:06;99590.66;;;29.89;48.44
42169;BME280;27838;43.858;25.974;2023-08-06T09:59:32;99603.00;;;29.82;48.67
42169;BME280;27838;43.858;25.974;2023-08-06T10:01:59;99608.09;;;29.85;48.76
42169;BME280;27838;43.858;25.974;2023-08-06T10:04:26;99616.72;;;29.79;48.86
42169;BME280;27838;43.858;25.974;2023-08-06T10:06:53;99628.50;;;29.78;48.99
42169;BME280;27838;43.858;25.974;2023-08-06T10:09:20;99622.44;;;29.66;49.59
42169;BME280;27838;43.858;25.974;2023-08-06T10:11:50;99636.63;;;29.59;50.23
42169;BME280;27838;43.858;25.974;2023-08-06T10:14:30;99666.63;;;29.44;50.56
42169;BME280;27838;43.858;25.974;2023-08-06T10:16:59;99667.63;;;29.43;50.91
42169;BME280;27838;43.858;25.974;2023-08-06T10:19:26;99665.50;;;29.37;51.01
42169;BME280;27838;43.858;25.974;2023-08-06T10:22:13;99641.28;;;29.29;51.48
42169;BME280;27838;43.858;25.974;2023-08-06T10:25:00;99602.03;;;29.18;51.83
42169;BME280;27838;43.858;25.974;2023-08-06T10:30:29;99679.59;;;28.92;53.33
42169;BME280;27838;43.858;25.974;2023-08-06T10:33:01;99700.06;;;28.83;54.54
42169;BME280;27838;43.858;25.974;2023-08-06T10:35:40;99707.97;;;28.85;55.50
42169;BME280;27838;43.858;25.974;2023-08-06T10:38:11;99704.44;;;28.84;56.73
42169;BME280;27838;43.858;25.974;2023-08-06T10:40:48;99692.19;;;28.81;57.53
42169;BME280;27838;43.858;25.974;2023-08-06T10:43:32;99654.78;;;28.60;58.62
42169;BME280;27838;43.858;25.974;2023-08-06T10:46:02;99629.41;;;28.55;58.82
42169;BME280;27838;43.858;25.974;2023-08-06T10:48:39;99597.94;;;28.47;58.64
42169;BME280;27838;43.858;25.974;2023-08-06T10:51:10;99584.09;;;28.32;58.50
42169;BME280;27838;43.858;25.974;2023-08-06T10:53:37;99593.00;;;28.23;59.09
42169;BME280;27838;43.858;25.974;2023-08-06T10:56:14;99601.75;;;28.15;59.37
42169;BME280;27838;43.858;25.974;2023-08-06T10:58:42;99638.41;;;28.24;59.28
42169;BME280;27838;43.858;25.974;2023-08-06T11:01:09;99654.91;;;28.20;59.00
42169;BME280;27838;43.858;25.974;2023-08-06T11:03:37;99673.25;;;28.24;59.16
42169;BME280;27838;43.858;25.974;2023-08-06T11:06:06;99693.00;;;28.33;59.33
42169;BME280;27838;43.858;25.974;2023-08-06T11:08:35;99693.81;;;28.34;59.04
42169;BME280;27838;43.858;25.974;2023-08-06T11:11:12;99724.31;;;28.33;58.85
42169;BME280;27838;43.858;25.974;2023-08-06T11:13:43;99733.47;;;28.40;58.32
42169;BME280;27838;43.858;25.974;2023-08-06T11:16:12;99728.56;;;28.45;58.22
42169;BME280;27838;43.858;25.974;2023-08-06T11:18:40;99709.66;;;28.47;57.42
42169;BME280;27838;43.858;25.974;2023-08-06T11:21:06;99693.41;;;28.48;57.53
42169;BME280;27838;43.858;25.974;2023-08-06T11:23:34;99686.94;;;28.51;57.10
42169;BME280;27838;43.858;25.974;2023-08-06T11:26:01;99680.88;;;28.49;56.77
42169;BME280;27838;43.858;25.974;2023-08-06T11:28:28;99674.38;;;28.41;57.05
42169;BME280;27838;43.858;25.974;2023-08-06T11:30:55;99662.94;;;28.49;57.03
42169;BME280;27838;43.858;25.974;2023-08-06T11:33:25;99665.50;;;28.51;57.22
42169;BME280;27838;43.858;25.974;2023-08-06T11:35:54;99666.94;;;28.55;56.98
42169;BME280;27838;43.858;25.974;2023-08-06T11:38:21;99658.34;;;28.61;56.89
42169;BME280;27838;43.858;25.974;2023-08-06T11:40:47;99636.31;;;28.67;56.60
42169;BME280;27838;43.858;25.974;2023-08-06T11:43:14;99636.03;;;28.70;56.69
42169;BME280;27838;43.858;25.974;2023-08-06T11:45:41;99616.97;;;28.63;56.94
42169;BME280;27838;43.858;25.974;2023-08-06T11:48:08;99603.56;;;28.54;56.94
42169;BME280;27838;43.858;25.974;2023-08-06T11:50:37;99600.19;;;28.61;57.33
42169;BME280;27838;43.858;25.974;2023-08-06T11:53:04;99621.63;;;28.61;57.20
42169;BME280;27838;43.858;25.974;2023-08-06T11:55:31;99630.38;;;28.63;57.07
42169;BME280;27838;43.858;25.974;2023-08-06T11:58:02;99632.22;;;28.63;57.14
42169;BME280;27838;43.858;25.974;2023-08-06T12:00:29;99622.78;;;28.59;57.14
42169;BME280;27838;43.858;25.974;2023-08-06T12:02:56;99623.91;;;28.66;57.23
42169;BME280;27838;43.858;25.974;2023-08-06T12:05:23;99633.19;;;28.72;56.99
42169;BME280;27838;43.858;25.974;2023-08-06T12:07:58;99619.94;;;28.70;56.82
42169;BME280;27838;43.858;25.974;2023-08-06T12:10:26;99618.09;;;28.71;56.71
42169;BME280;27838;43.858;25.974;2023-08-06T12:12:53;99626.41;;;28.77;56.98
42169;BME280;27838;43.858;25.974;2023-08-06T12:15:20;99628.66;;;28.82;56.54
42169;BME280;27838;43.858;25.974;2023-08-06T12:17:47;99637.56;;;28.83;56.13
42169;BME280;27838;43.858;25.974;2023-08-06T12:20:14;99638.84;;;28.78;55.64
42169;BME280;27838;43.858;25.974;2023-08-06T12:22:40;99641.09;;;28.73;55.89
42169;BME280;27838;43.858;25.974;2023-08-06T12:25:08;99645.19;;;28.77;55.48
42169;BME280;27838;43.858;25.974;2023-08-06T12:27:44;99627.13;;;28.70;55.27
42169;BME280;27838;43.858;25.974;2023-08-06T12:30:11;99624.75;;;28.76;54.72
42169;BME280;27838;43.858;25.974;2023-08-06T12:32:38;99621.03;;;28.77;54.32
42169;BME280;27838;43.858;25.974;2023-08-06T12:35:05;99600.88;;;28.73;53.79
42169;BME280;27838;43.858;25.974;2023-08-06T12:37:32;99593.53;;;28.75;54.12
42169;BME280;27838;43.858;25.974;2023-08-06T12:39:59;99573.94;;;28.75;53.62
42169;BME280;27838;43.858;25.974;2023-08-06T12:42:26;99570.78;;;28.79;52.96
42169;BME280;27838;43.858;25.974;2023-08-06T12:44:52;99575.72;;;28.84;53.13
42169;BME280;27838;43.858;25.974;2023-08-06T12:47:19;99579.25;;;28.85;53.08
42169;BME280;27838;43.858;25.974;2023-08-06T12:49:46;99592.50;;;28.96;53.20
42169;BME280;27838;43.858;25.974;2023-08-06T12:52:12;99597.16;;;28.94;52.89
42169;BME280;27838;43.858;25.974;2023-08-06T12:54:40;99597.03;;;28.86;52.27
42169;BME280;27838;43.858;25.974;2023-08-06T12:57:07;99604.53;;;28.82;52.28
42169;BME280;27838;43.858;25.974;2023-08-06T12:59:33;99608.59;;;28.86;52.62